« Back
NWS Peachtree City, Ga » Text Product » AHN Terminal Aerodrome Forecast


Printer-friendly Version
Current Version              Previous Versions:   1  2  3  4  5  6  7  8  9  

Terminal Aerodrome Forecast

767
FTUS42 KFFC 061143
TAFAHN
TAF
KAHN 061143Z 0612/0712 29003KT 6SM BR FEW010
     FM061500 28008KT P6SM SCT020 BKN070
     FM061700 24010KT P6SM BKN040
     FM061900 27010KT P6SM VCSH BKN050
     FM070000 28007KT P6SM SCT050 BKN100
     FM070200 28006KT P6SM SCT070 BKN150=

USA.gov is the U.S. government's official web portal to all federal, state and local government web resources and services.